Time;durP1;ratioP1;P1;durP2;ratioP2;P2;SDS_P1;SDS_P2;PMS_P1;PMS_P2;Temp;Humidity;BMP_temperature;BMP_pressure;BME280_temperature;BME280_humidity;BME280_pressure;Samples;Min_cycle;Max_cycle;Signal;HPM_P1;HPM_P2
2023/12/28 00:01:10;;;;;;;0.20;0.20;;;3.80;99.90;;;;;;5070384;28;20040;-74
2023/12/28 00:03:36;;;;;;;0.10;0.10;;;3.80;99.90;;;;;;5089916;28;20044;-75
2023/12/28 00:06:02;;;;;;;4.68;4.47;;;3.90;99.90;;;;;;5089373;28;20051;-75
2023/12/28 00:08:28;;;;;;;0.30;0.30;;;4.40;99.90;;;;;;5071958;28;20229;-75
2023/12/28 00:11:23;;;;;;;6.45;6.22;;;4.00;99.90;;;;;;5070749;28;20024;-75
2023/12/28 00:13:53;;;;;;;0.08;0.08;;;4.00;99.90;;;;;;5089773;28;20034;-75
2023/12/28 00:16:21;;;;;;;7.82;7.47;;;3.20;99.90;;;;;;5088451;28;20102;-76
2023/12/28 00:18:46;;;;;;;0.10;0.10;;;4.10;99.90;;;;;;5088367;28;20009;-75
2023/12/28 00:21:15;;;;;;;0.10;0.10;;;3.50;99.90;;;;;;5089138;28;20035;-75
2023/12/28 00:23:45;;;;;;;0.00;0.00;;;4.00;99.90;;;;;;5053906;28;20033;-75
2023/12/28 00:26:11;;;;;;;0.00;0.00;;;3.90;99.90;;;;;;5071007;28;20046;-75
2023/12/28 00:28:41;;;;;;;1.60;1.55;;;3.80;99.90;;;;;;5069720;28;20028;-75
2023/12/28 00:31:10;;;;;;;0.00;0.00;;;3.80;99.90;;;;;;5087119;28;20600;-75
2023/12/28 00:33:50;;;;;;;0.10;0.10;;;3.60;99.90;;;;;;5066501;28;20017;-75
2023/12/28 00:36:28;;;;;;;6.93;6.38;;;3.50;99.90;;;;;;5088695;28;20032;-75
2023/12/28 00:38:58;;;;;;;0.00;0.00;;;3.50;99.90;;;;;;5085715;28;20041;-75
2023/12/28 00:41:24;;;;;;;0.00;0.00;;;3.40;99.90;;;;;;5087175;28;20024;-75
2023/12/28 00:43:50;;;;;;;0.20;0.20;;;3.30;99.90;;;;;;5070319;28;20029;-75
2023/12/28 00:46:16;;;;;;;0.10;0.10;;;3.80;99.90;;;;;;5086057;28;20020;-75
2023/12/28 00:48:44;;;;;;;0.10;0.10;;;3.30;99.90;;;;;;5085864;28;20027;-74
2023/12/28 00:51:13;;;;;;;0.03;0.03;;;3.30;99.90;;;;;;5086588;28;20032;-74
2023/12/28 00:53:42;;;;;;;0.10;0.10;;;3.40;99.90;;;;;;5087898;28;20020;-75
2023/12/28 00:56:10;;;;;;;0.10;0.10;;;4.40;99.90;;;;;;5087741;28;20028;-76
2023/12/28 00:58:39;;;;;;;0.00;0.00;;;3.40;99.90;;;;;;5070565;28;20047;-74
2023/12/28 01:01:06;;;;;;;2.13;2.08;;;3.40;99.90;;;;;;5087542;28;20658;-75
2023/12/28 01:03:35;;;;;;;0.10;0.10;;;3.40;99.90;;;;;;5087818;28;20013;-75
2023/12/28 01:06:03;;;;;;;0.30;0.30;;;3.40;99.90;;;;;;5087978;28;20074;-75
2023/12/28 01:08:29;;;;;;;0.10;0.10;;;3.40;99.90;;;;;;5086564;28;20024;-76
2023/12/28 01:10:54;;;;;;;0.10;0.10;;;3.50;99.90;;;;;;5088522;28;20081;-76
2023/12/28 01:13:20;;;;;;;0.10;0.10;;;3.40;99.90;;;;;;5087843;28;20025;-74
2023/12/28 01:15:55;;;;;;;0.10;0.10;;;4.30;99.90;;;;;;5087068;28;20044;-75
2023/12/28 01:18:31;;;;;;;0.30;0.30;;;3.50;99.90;;;;;;5085994;28;20056;-75
2023/12/28 01:21:07;;;;;;;0.10;0.10;;;3.50;99.90;;;;;;5087010;28;20720;-75
2023/12/28 01:23:33;;;;;;;0.10;0.10;;;3.60;99.90;;;;;;5085769;28;20041;-74
2023/12/28 01:26:05;;;;;;;0.00;0.00;;;3.70;99.90;;;;;;5087516;28;20037;-75
2023/12/28 01:28:58;;;;;;;0.10;0.10;;;3.70;99.90;;;;;;5088691;28;20022;-74
2023/12/28 01:31:48;;;;;;;0.00;0.00;;;3.80;99.90;;;;;;5045869;28;20112;-75
2023/12/28 01:34:14;;;;;;;1.17;1.17;;;3.80;99.90;;;;;;5041790;28;20033;-75
2023/12/28 01:36:44;;;;;;;12.60;7.88;;;3.80;99.90;;;;;;5045358;28;20021;-75
2023/12/28 01:39:37;;;;;;;0.57;0.57;;;3.80;99.90;;;;;;5047982;28;20013;-75
2023/12/28 01:42:04;;;;;;;0.10;0.10;;;3.70;99.90;;;;;;5031313;28;20045;-76
2023/12/28 01:44:33;;;;;;;0.10;0.10;;;;;;;;;;5047038;28;20109;-75
2023/12/28 01:47:08;;;;;;;5.30;5.07;;;3.70;99.90;;;;;;5045247;28;20037;-78
2023/12/28 01:49:57;;;;;;;0.10;0.10;;;3.70;99.90;;;;;;5027224;28;20037;-75
2023/12/28 01:52:24;;;;;;;0.10;0.10;;;4.50;99.90;;;;;;5045144;28;20033;-75
2023/12/28 01:54:53;;;;;;;0.10;0.10;;;3.70;99.90;;;;;;5044783;28;20025;-75
2023/12/28 01:57:22;;;;;;;1.55;1.55;;;3.50;99.90;;;;;;5044676;28;20064;-75
2023/12/28 01:59:48;;;;;;;0.10;0.10;;;3.40;99.90;;;;;;5042909;28;20029;-75
2023/12/28 02:02:15;;;;;;;0.10;0.10;;;3.40;99.90;;;;;;5055396;28;20041;-75
2023/12/28 02:04:43;;;;;;;0.10;0.10;;;3.30;99.90;;;;;;5068151;28;20017;-75
2023/12/28 02:07:23;;;;;;;0.10;0.10;;;2.60;99.90;;;;;;5067661;28;20126;-75
2023/12/28 02:10:05;;;;;;;0.10;0.10;;;3.30;99.90;;;;;;5066923;28;20028;-75
2023/12/28 02:12:47;;;;;;;0.10;0.10;;;3.20;99.90;;;;;;5064572;28;20040;-76
2023/12/28 02:15:24;;;;;;;4.75;4.57;;;3.20;99.90;;;;;;5066827;28;20038;-75
2023/12/28 02:18:09;;;;;;;0.10;0.10;;;3.10;99.90;;;;;;5048003;28;20112;-75
2023/12/28 02:21:04;;;;;;;0.10;0.10;;;3.10;99.90;;;;;;5072046;28;20021;-74
2023/12/28 02:23:36;;;;;;;0.10;0.10;;;5.80;99.90;;;;;;5070835;28;20013;-75
2023/12/28 02:26:05;;;;;;;0.90;0.90;;;3.20;99.90;;;;;;5069390;28;20040;-75
2023/12/28 02:28:40;;;;;;;0.52;0.52;;;3.20;99.90;;;;;;5054822;28;20029;-75
2023/12/28 02:31:44;;;;;;;0.20;0.20;;;3.10;99.90;;;;;;5072665;28;20035;-76
2023/12/28 02:34:23;;;;;;;0.10;0.10;;;3.10;99.90;;;;;;5072085;28;20047;-75
2023/12/28 02:37:25;;;;;;;0.10;0.10;;;3.10;99.90;;;;;;5070565;28;20028;-75
2023/12/28 02:40:20;;;;;;;0.20;0.20;;;3.10;99.90;;;;;;5072303;28;20151;-76
2023/12/28 02:42:47;;;;;;;0.10;0.10;;;3.10;99.90;;;;;;5067581;28;20059;-78
2023/12/28 02:45:15;;;;;;;0.10;0.10;;;3.20;99.90;;;;;;5071455;28;20028;-75
2023/12/28 02:47:53;;;;;;;0.10;0.10;;;3.30;99.90;;;;;;5070205;28;20074;-75
2023/12/28 02:50:19;;;;;;;10.75;9.95;;;;;;;;;;5071531;28;20205;-75
2023/12/28 02:52:49;;;;;;;0.00;0.00;;;3.30;99.90;;;;;;5071123;28;20017;-76
2023/12/28 02:55:14;;;;;;;0.03;0.03;;;3.10;99.90;;;;;;5069373;28;20036;-76
2023/12/28 02:58:00;;;;;;;0.10;0.10;;;3.10;99.90;;;;;;5069687;28;20021;-76
2023/12/28 03:00:26;;;;;;;0.10;0.10;;;3.00;99.90;;;;;;5050508;28;20055;-75
2023/12/28 03:03:05;;;;;;;0.10;0.10;;;3.00;99.90;;;;;;5067279;28;20021;-75
2023/12/28 03:05:48;;;;;;;0.43;0.43;;;3.10;99.90;;;;;;5070297;28;20021;-75
2023/12/28 03:08:14;;;;;;;2.08;1.98;;;3.10;99.90;;;;;;5068785;28;20013;-75
2023/12/28 03:10:40;;;;;;;0.43;0.43;;;3.10;99.90;;;;;;5070750;28;20024;-77
2023/12/28 03:13:05;;;;;;;0.88;0.88;;;3.10;99.90;;;;;;5069435;28;20017;-75
2023/12/28 03:15:32;;;;;;;0.57;0.57;;;3.20;99.90;;;;;;5068373;28;20021;-75
2023/12/28 03:17:58;;;;;;;19.90;18.73;;;3.60;99.90;;;;;;5068176;28;20013;-75
2023/12/28 03:20:24;;;;;;;0.10;0.10;;;3.10;99.90;;;;;;5051424;28;20790;-75
2023/12/28 03:22:50;;;;;;;3.95;3.80;;;3.10;99.90;;;;;;5068329;28;20021;-75
2023/12/28 03:25:16;;;;;;;31.58;28.75;;;3.10;99.90;;;;;;5067895;28;20072;-74
2023/12/28 03:27:41;;;;;;;0.20;0.20;;;3.00;99.90;;;;;;5067597;28;20026;-75
2023/12/28 03:30:09;;;;;;;0.10;0.10;;;2.80;99.90;;;;;;5068941;28;20025;-75
2023/12/28 03:32:55;;;;;;;0.95;0.95;;;2.80;99.90;;;;;;5067319;28;20031;-75
2023/12/28 03:35:52;;;;;;;0.17;0.17;;;2.70;99.90;;;;;;5067854;28;20025;-75
2023/12/28 03:38:21;;;;;;;0.10;0.10;;;2.70;99.90;;;;;;5073426;28;20025;-78
2023/12/28 03:40:49;;;;;;;0.10;0.10;;;2.80;99.90;;;;;;5070506;28;20048;-75
2023/12/28 03:43:15;;;;;;;15.15;14.45;;;2.90;99.90;;;;;;5069448;28;20017;-75
2023/12/28 03:45:40;;;;;;;0.10;0.10;;;2.90;99.90;;;;;;5070526;28;20024;-75
2023/12/28 03:48:06;;;;;;;0.00;0.00;;;3.00;99.90;;;;;;5069981;28;20068;-74
2023/12/28 03:50:32;;;;;;;3.30;3.20;;;3.00;99.90;;;;;;5068623;28;20017;-75
2023/12/28 03:52:58;;;;;;;0.00;0.00;;;2.90;99.90;;;;;;5071663;28;20055;-74
2023/12/28 03:55:24;;;;;;;19.33;17.50;;;2.90;99.90;;;;;;5068016;28;20067;-75
2023/12/28 03:57:51;;;;;;;3.28;2.15;;;2.90;99.90;;;;;;5051686;28;20039;-75
2023/12/28 04:00:17;;;;;;;16.08;15.10;;;3.00;99.90;;;;;;5069196;28;20024;-75
2023/12/28 04:02:42;;;;;;;16.77;15.85;;;3.00;99.90;;;;;;5068210;28;20044;-75
2023/12/28 04:05:36;;;;;;;5.18;4.95;;;3.00;99.90;;;;;;5066602;28;20012;-76
2023/12/28 04:08:12;;;;;;;2.07;1.97;;;2.90;99.90;;;;;;5068296;28;20020;-77
2023/12/28 04:10:38;;;;;;;0.10;0.10;;;2.90;99.90;;;;;;5068305;28;20248;-75
2023/12/28 04:13:04;;;;;;;0.10;0.10;;;2.90;99.90;;;;;;5069049;28;20069;-75
2023/12/28 04:15:31;;;;;;;1.63;1.60;;;2.80;99.90;;;;;;5050678;28;20021;-75
2023/12/28 04:17:57;;;;;;;6.10;5.72;;;2.90;99.90;;;;;;5069685;28;20163;-75
2023/12/28 04:20:23;;;;;;;1.90;1.85;;;2.90;99.90;;;;;;5068022;28;20067;-76
2023/12/28 04:23:03;;;;;;;7.88;2.28;;;2.90;99.90;;;;;;5068823;28;20020;-76
2023/12/28 04:25:33;;;;;;;0.10;0.10;;;2.70;99.90;;;;;;5067289;28;20017;-75
2023/12/28 04:27:59;;;;;;;0.10;0.10;;;2.70;99.90;;;;;;5067397;28;20092;-75
2023/12/28 04:30:25;;;;;;;0.13;0.13;;;2.70;99.90;;;;;;5068926;28;20021;-75
2023/12/28 04:32:51;;;;;;;0.10;0.10;;;1.20;99.90;;;;;;5051775;28;20575;-74
2023/12/28 04:35:17;;;;;;;0.10;0.10;;;2.70;99.90;;;;;;5068797;28;20017;-75
2023/12/28 04:37:43;;;;;;;0.03;0.03;;;2.70;99.90;;;;;;5068775;28;20024;-77
2023/12/28 04:40:09;;;;;;;0.00;0.00;;;2.60;99.90;;;;;;5074780;28;20052;-75
2023/12/28 04:42:35;;;;;;;1.35;1.02;;;2.70;99.90;;;;;;5088620;28;20042;-75
2023/12/28 04:45:00;;;;;;;0.10;0.10;;;2.70;99.90;;;;;;5064645;28;20059;-75
2023/12/28 04:47:37;;;;;;;0.00;0.00;;;2.60;99.90;;;;;;5086856;28;20060;-75
2023/12/28 04:50:19;;;;;;;0.20;0.20;;;2.70;99.90;;;;;;5085871;28;20024;-75
2023/12/28 04:52:45;;;;;;;0.10;0.10;;;2.60;99.90;;;;;;5087144;28;20017;-76
2023/12/28 04:55:11;;;;;;;23.65;22.40;;;2.60;99.90;;;;;;5090904;28;20017;-75
2023/12/28 04:57:37;;;;;;;0.10;0.10;;;2.60;99.90;;;;;;5091534;28;20020;-75
2023/12/28 05:00:04;;;;;;;0.10;0.10;;;2.50;99.90;;;;;;5091084;28;20076;-74
2023/12/28 05:02:33;;;;;;;15.73;14.45;;;2.50;99.90;;;;;;5088456;28;20013;-74
2023/12/28 05:05:17;;;;;;;0.17;0.17;;;2.50;99.90;;;;;;5039049;28;20024;-75
2023/12/28 05:07:43;;;;;;;0.10;0.10;;;2.50;99.90;;;;;;5069554;28;20039;-75
2023/12/28 05:10:27;;;;;;;0.10;0.10;;;2.60;99.90;;;;;;5087493;28;20009;-75
2023/12/28 05:12:53;;;;;;;;;;;2.50;99.90;;;;;;5086743;28;20066;-75
2023/12/28 05:15:19;;;;;;;4.90;4.57;;;2.40;99.90;;;;;;5085668;28;19900;-75
2023/12/28 05:17:45;;;;;;;0.00;0.00;;;2.30;99.90;;;;;;5086344;28;20035;-75
2023/12/28 05:20:17;;;;;;;0.88;0.88;;;2.30;99.90;;;;;;5068232;28;20052;-77
2023/12/28 05:22:43;;;;;;;0.03;0.03;;;2.30;99.90;;;;;;5087876;28;20123;-76
2023/12/28 05:25:09;;;;;;;0.95;0.95;;;2.30;99.90;;;;;;5090144;28;20033;-75
2023/12/28 05:27:34;;;;;;;5.70;5.47;;;2.30;99.90;;;;;;5089140;28;20013;-77
2023/12/28 05:30:00;;;;;;;0.10;0.10;;;2.20;99.90;;;;;;5088094;28;20013;-75
2023/12/28 05:32:32;;;;;;;38.55;36.58;;;2.30;99.90;;;;;;5088762;28;20019;-76
2023/12/28 05:35:26;;;;;;;10.68;10.32;;;2.30;99.90;;;;;;5087330;28;20020;-75
2023/12/28 05:37:52;;;;;;;0.10;0.10;;;1.00;99.90;;;;;;5088702;28;20103;-75
2023/12/28 05:40:19;;;;;;;0.93;0.93;;;2.00;99.90;;;;;;5086777;28;20291;-75
2023/12/28 05:42:46;;;;;;;0.13;0.13;;;2.00;99.90;;;;;;5086598;28;20039;-75
2023/12/28 05:45:12;;;;;;;0.10;0.10;;;2.00;99.90;;;;;;5085540;28;20036;-75
2023/12/28 05:47:41;;;;;;;0.47;0.47;;;2.10;99.90;;;;;;5067001;28;20066;-75
2023/12/28 05:50:09;;;;;;;0.10;0.10;;;2.10;99.90;;;;;;5084258;28;20036;-75
2023/12/28 05:52:38;;;;;;;0.10;0.10;;;2.20;99.90;;;;;;5069272;28;20008;-75
2023/12/28 05:55:05;;;;;;;0.10;0.10;;;2.20;99.90;;;;;;5083893;28;20017;-75
2023/12/28 05:57:31;;;;;;;0.10;0.10;;;2.30;99.90;;;;;;5088945;28;20017;-74
2023/12/28 05:59:59;;;;;;;0.10;0.10;;;2.30;99.90;;;;;;5088906;28;20035;-74
2023/12/28 06:02:34;;;;;;;0.10;0.10;;;2.40;99.90;;;;;;5084719;28;20023;-75
2023/12/28 06:05:00;;;;;;;0.10;0.10;;;2.40;99.90;;;;;;5083424;28;20076;-74
2023/12/28 06:07:25;;;;;;;0.10;0.10;;;2.40;99.90;;;;;;5086800;28;20028;-74
2023/12/28 06:09:51;;;;;;;0.10;0.10;;;2.40;99.90;;;;;;5086783;28;20028;-75
2023/12/28 06:12:17;;;;;;;0.20;0.20;;;2.40;99.90;;;;;;5066695;28;20032;-73
2023/12/28 06:14:43;;;;;;;0.20;0.20;;;2.50;99.90;;;;;;5068621;28;20028;-74
2023/12/28 06:17:09;;;;;;;0.10;0.10;;;2.50;99.90;;;;;;5066785;28;20017;-75
2023/12/28 06:19:43;;;;;;;0.10;0.10;;;2.50;99.90;;;;;;5066460;28;20017;-74
2023/12/28 06:22:30;;;;;;;4.40;4.20;;;2.40;99.90;;;;;;5065622;28;20025;-74
2023/12/28 06:24:57;;;;;;;0.10;0.10;;;2.50;99.90;;;;;;5056546;28;20027;-74
2023/12/28 06:27:27;;;;;;;0.10;0.10;;;2.40;99.90;;;;;;5065917;28;20693;-75
2023/12/28 06:29:53;;;;;;;2.30;2.10;;;2.30;99.90;;;;;;5061863;28;20159;-74
2023/12/28 06:32:19;;;;;;;0.17;0.17;;;2.20;99.90;;;;;;5066791;28;20623;-75
2023/12/28 06:34:45;;;;;;;30.95;28.75;;;2.20;99.90;;;;;;5067768;28;20036;-75
2023/12/28 06:37:11;;;;;;;0.52;0.52;;;2.00;99.90;;;;;;5069782;28;20017;-75
2023/12/28 06:39:56;;;;;;;0.10;0.10;;;2.00;99.90;;;;;;5071293;28;20017;-75
2023/12/28 06:42:25;;;;;;;16.00;15.30;;;2.00;99.90;;;;;;5069513;28;20674;-75
2023/12/28 06:44:52;;;;;;;0.10;0.10;;;2.00;99.90;;;;;;5068310;28;20032;-77
2023/12/28 06:47:25;;;;;;;6.85;6.63;;;2.00;99.90;;;;;;5070032;28;20013;-75
2023/12/28 06:49:57;;;;;;;0.30;0.30;;;2.00;99.90;;;;;;5069823;28;20080;-75
2023/12/28 06:52:59;;;;;;;2.20;2.10;;;2.00;99.90;;;;;;5023906;28;20082;-75
2023/12/28 06:55:26;;;;;;;52.35;47.78;;;2.00;99.90;;;;;;5027035;28;20065;-75
2023/12/28 06:57:59;;;;;;;0.10;0.10;;;2.10;99.90;;;;;;5025397;28;20030;-75
2023/12/28 07:00:28;;;;;;;1.05;1.05;;;2.10;99.90;;;;;;5024655;28;20038;-75
2023/12/28 07:02:54;;;;;;;1.38;1.33;;;2.50;99.90;;;;;;5007383;28;20040;-75
2023/12/28 07:05:23;;;;;;;8.80;7.95;;;2.10;99.90;;;;;;5012601;28;20018;-75
2023/12/28 07:07:49;;;;;;;0.43;0.43;;;2.10;99.90;;;;;;4994695;28;20045;-75
2023/12/28 07:10:23;;;;;;;3.10;3.00;;;2.00;99.90;;;;;;5029679;28;20030;-75
2023/12/28 07:12:52;;;;;;;0.10;0.10;;;2.00;99.90;;;;;;5049941;28;20037;-75
2023/12/28 07:15:19;;;;;;;0.10;0.10;;;2.10;99.90;;;;;;5036633;28;20029;-75
2023/12/28 07:18:10;;;;;;;4.22;4.13;;;2.20;99.90;;;;;;5053886;28;20037;-74
2023/12/28 07:20:58;;;;;;;0.20;0.20;;;2.30;99.90;;;;;;5050907;28;20076;-75
2023/12/28 07:23:24;;;;;;;0.10;0.10;;;2.40;99.90;;;;;;5076434;22;20058;-75
2023/12/28 07:25:51;;;;;;;0.13;0.13;;;2.40;99.90;;;;;;5112183;28;20064;-75
2023/12/28 07:28:22;;;;;;;2.58;2.50;;;2.40;99.90;;;;;;5110921;28;20043;-75
2023/12/28 07:30:48;;;;;;;43.22;16.75;;;2.50;99.90;;;;;;5104285;28;20788;-75
2023/12/28 07:33:18;;;;;;;0.10;0.10;;;2.50;99.90;;;;;;5111064;28;20016;-75
2023/12/28 07:35:44;;;;;;;2.95;2.83;;;2.50;99.90;;;;;;5112495;28;20032;-76
2023/12/28 07:38:09;;;;;;;19.27;17.27;;;2.60;99.90;;;;;;5112800;28;20718;-75
2023/12/28 07:41:01;;;;;;;12.70;12.13;;;4.20;99.90;;;;;;5106821;28;20330;-75
2023/12/28 07:43:31;;;;;;;;;;;2.50;99.90;;;;;;5103673;28;20027;-75
2023/12/28 07:45:56;;;;;;;21.83;20.90;;;2.60;99.90;;;;;;5111917;28;19900;-76
2023/12/28 07:48:49;;;;;;;1.42;1.40;;;2.70;99.90;;;;;;5110278;28;20012;-75
2023/12/28 07:51:20;;;;;;;11.38;8.95;;;2.80;99.90;;;;;;5087090;28;20000;-76
2023/12/28 07:53:50;;;;;;;0.10;0.10;;;2.90;99.90;;;;;;5088507;28;20032;-75
2023/12/28 07:56:16;;;;;;;0.10;0.10;;;3.00;99.90;;;;;;5089743;28;20075;-76
2023/12/28 07:58:42;;;;;;;0.52;0.52;;;3.10;99.90;;;;;;5092605;28;20032;-75
2023/12/28 08:01:11;;;;;;;0.73;0.73;;;3.20;99.90;;;;;;5091280;28;20040;-75
2023/12/28 08:03:37;;;;;;;29.02;20.88;;;3.30;99.90;;;;;;5092323;28;20620;-75
2023/12/28 08:06:05;;;;;;;3.58;3.47;;;3.40;99.90;;;;;;5090529;28;20025;-75
2023/12/28 08:08:34;;;;;;;0.30;0.30;;;3.50;99.90;;;;;;5091156;28;20013;-74
2023/12/28 08:10:59;;;;;;;2.78;2.67;;;3.60;99.90;;;;;;5088588;28;20024;-77
2023/12/28 08:13:25;;;;;;;0.00;0.00;;;3.70;99.90;;;;;;5089103;28;20020;-74
2023/12/28 08:16:00;;;;;;;0.10;0.10;;;3.70;99.90;;;;;;5081150;28;20032;-75
2023/12/28 08:18:32;;;;;;;0.13;0.13;;;3.80;99.90;;;;;;5054880;28;20105;-75
2023/12/28 08:20:58;;;;;;;12.85;11.65;;;4.10;99.90;;;;;;5084252;28;20059;-76
2023/12/28 08:23:53;;;;;;;14.77;14.05;;;4.80;99.90;;;;;;5081782;28;20036;-74
2023/12/28 08:26:41;;;;;;;0.10;0.10;;;4.30;99.90;;;;;;5083659;28;20082;-75
2023/12/28 08:29:07;;;;;;;23.70;5.18;;;4.50;99.90;;;;;;5086524;28;20228;-76
2023/12/28 08:31:33;;;;;;;1.40;1.38;;;4.60;99.90;;;;;;5086758;28;20035;-75
2023/12/28 08:33:58;;;;;;;0.10;0.10;;;4.60;99.90;;;;;;5090629;28;20040;-76
2023/12/28 08:36:24;;;;;;;1.60;1.55;;;4.50;99.90;;;;;;5068406;28;20087;-75
2023/12/28 08:38:56;;;;;;;19.45;18.50;;;4.50;99.90;;;;;;5091810;28;20047;-75
2023/12/28 08:41:25;;;;;;;0.10;0.10;;;4.60;99.90;;;;;;5088937;28;20017;-75
2023/12/28 08:43:52;;;;;;;3.00;2.90;;;4.80;99.90;;;;;;5090429;28;20020;-76
2023/12/28 08:46:19;;;;;;;31.88;15.60;;;4.90;99.90;;;;;;5088147;28;20048;-75
2023/12/28 08:48:45;;;;;;;0.28;0.28;;;5.00;99.90;;;;;;5084902;28;20021;-76
2023/12/28 08:51:11;;;;;;;0.32;0.32;;;5.10;99.90;;;;;;5055771;28;20017;-75
2023/12/28 08:53:37;;;;;;;0.10;0.10;;;5.10;99.90;;;;;;5100736;23;20083;-75
2023/12/28 08:56:34;;;;;;;11.73;11.18;;;5.10;99.90;;;;;;5062518;28;20013;-75
2023/12/28 08:59:15;;;;;;;0.80;0.80;;;5.30;99.90;;;;;;5059094;28;20084;-75
2023/12/28 09:01:43;;;;;;;0.55;0.55;;;5.70;99.90;;;;;;5069246;28;20033;-77
2023/12/28 09:04:24;;;;;;;38.38;11.05;;;5.90;99.90;;;;;;5052037;28;20021;-75
2023/12/28 09:06:57;;;;;;;0.10;0.10;;;6.10;99.90;;;;;;5048018;28;20040;-74
2023/12/28 09:12:33;;;;;;;0.10;0.10;;;6.40;99.90;;;;;;5046822;28;20025;-74
2023/12/28 09:15:02;;;;;;;0.10;0.10;;;6.70;99.90;;;;;;5070746;28;20025;-75
2023/12/28 09:17:35;;;;;;;0.13;0.13;;;6.90;99.90;;;;;;5071918;28;19997;-75
2023/12/28 09:20:06;;;;;;;0.28;0.28;;;7.00;99.90;;;;;;5067761;28;20017;-75
2023/12/28 09:22:42;;;;;;;3.30;3.15;;;7.20;99.90;;;;;;5055845;23;20081;-74
2023/12/28 09:25:08;;;;;;;5.28;5.07;;;7.10;99.90;;;;;;5059563;28;20024;-75
2023/12/28 09:27:34;;;;;;;3.83;3.70;;;7.30;99.90;;;;;;5041617;28;20037;-76
2023/12/28 09:30:01;;;;;;;0.17;0.17;;;7.50;99.90;;;;;;5064696;28;20013;-75
2023/12/28 09:32:30;;;;;;;0.10;0.10;;;7.60;99.90;;;;;;5063905;28;20100;-75
2023/12/28 09:35:03;;;;;;;3.40;2.92;;;7.70;99.90;;;;;;5057167;28;20013;-75
2023/12/28 09:37:59;;;;;;;0.20;0.20;;;7.80;99.90;;;;;;5055297;28;20028;-75
2023/12/28 09:40:41;;;;;;;0.28;0.28;;;8.00;99.90;;;;;;5049673;28;20033;-77
2023/12/28 09:43:49;;;;;;;0.32;0.32;;;8.20;99.90;;;;;;5054352;28;20059;-74
2023/12/28 09:46:40;;;;;;;1.10;1.10;;;8.40;99.90;;;;;;5061160;28;20028;-75
2023/12/28 09:49:11;;;;;;;2.45;2.25;;;8.30;99.90;;;;;;5066746;28;19993;-75
2023/12/28 09:51:37;;;;;;;0.40;0.40;;;;;;;;;;5068600;28;20029;-75
2023/12/28 09:54:06;;;;;;;8.35;7.95;;;8.30;99.90;;;;;;5067749;28;20021;-76
2023/12/28 09:56:42;;;;;;;1.48;1.42;;;8.50;99.90;;;;;;5066955;28;20013;-77
2023/12/28 09:59:08;;;;;;;0.20;0.20;;;8.50;99.90;;;;;;5057142;28;20105;-77
2023/12/28 10:01:37;;;;;;;10.63;9.95;;;8.70;99.90;;;;;;5053658;28;20049;-78
2023/12/28 10:04:09;;;;;;;9.43;9.05;;;8.70;99.90;;;;;;5062596;28;20021;-75
2023/12/28 10:06:45;;;;;;;6.45;6.22;;;8.80;99.90;;;;;;5067920;28;20009;-75
2023/12/28 10:09:12;;;;;;;23.75;22.25;;;10.40;99.90;;;;;;5065674;28;20558;-75
2023/12/28 10:11:41;;;;;;;4.97;4.72;;;9.10;99.90;;;;;;5069527;28;20036;-75
2023/12/28 10:14:08;;;;;;;17.50;15.73;;;9.30;99.90;;;;;;5065891;28;20312;-76
2023/12/28 10:16:34;;;;;;;5.20;4.72;;;9.50;99.90;;;;;;5065203;28;20006;-76
2023/12/28 10:19:00;;;;;;;1.30;1.30;;;9.70;99.90;;;;;;5064531;28;20021;-75
2023/12/28 10:21:26;;;;;;;14.43;13.45;;;9.70;99.90;;;;;;5067057;28;20059;-75
2023/12/28 10:23:52;;;;;;;1.35;1.35;;;9.80;99.90;;;;;;5088637;28;20017;-76
2023/12/28 10:26:20;;;;;;;7.32;6.93;;;10.00;99.90;;;;;;5071670;28;20024;-75
2023/12/28 10:28:46;;;;;;;2.65;2.55;;;10.20;99.90;;;;;;5073016;28;20024;-75
2023/12/28 10:31:15;;;;;;;0.88;0.88;;;10.20;99.90;;;;;;5083642;28;20029;-77
2023/12/28 10:33:41;;;;;;;2.72;2.63;;;10.40;99.90;;;;;;5062533;28;20045;-75
2023/12/28 10:36:11;;;;;;;2.17;2.15;;;10.60;99.90;;;;;;5082546;28;20485;-77
2023/12/28 10:38:42;;;;;;;6.35;6.05;;;10.80;99.90;;;;;;5082794;28;20028;-75
2023/12/28 10:41:11;;;;;;;0.47;0.47;;;10.90;99.90;;;;;;5081092;28;20671;-76
2023/12/28 10:44:05;;;;;;;5.20;4.95;;;11.10;99.90;;;;;;5077849;28;20044;-74
2023/12/28 10:46:32;;;;;;;5.13;4.83;;;11.30;99.90;;;;;;5057031;28;20025;-76
2023/12/28 10:49:06;;;;;;;4.97;4.68;;;11.20;99.90;;;;;;5071812;28;20025;-76
2023/12/28 10:51:36;;;;;;;2.80;2.70;;;11.40;99.90;;;;;;5073061;28;20021;-75
2023/12/28 10:54:48;;;;;;;;;;;;;;;;;;;;;
2023/12/28 10:57:31;;;;;;;4.22;4.03;;;11.80;99.90;;;;;;5064688;28;20033;-76
2023/12/28 10:59:59;;;;;;;6.43;5.78;;;12.00;99.90;;;;;;5075551;28;20117;-74
2023/12/28 11:02:29;;;;;;;2.92;2.83;;;12.20;99.90;;;;;;5074908;28;20021;-75
2023/12/28 11:04:58;;;;;;;12.43;11.50;;;12.30;99.90;;;;;;5069229;28;20086;-77
2023/12/28 11:07:32;;;;;;;3.50;3.22;;;12.40;99.90;;;;;;5064919;28;20024;-76
2023/12/28 11:10:01;;;;;;;16.17;14.93;;;12.50;99.90;;;;;;5064601;28;20020;-76
2023/12/28 11:12:28;;;;;;;0.88;0.88;;;12.70;99.90;;;;;;5063292;28;20024;-76
2023/12/28 11:14:55;;;;;;;27.23;11.40;;;12.70;99.90;;;;;;5069517;28;20065;-75
2023/12/28 11:17:24;;;;;;;2.15;2.05;;;12.80;99.90;;;;;;5065019;28;20096;-82
2023/12/28 11:19:53;;;;;;;0.63;0.63;;;13.00;99.90;;;;;;5045805;28;20162;-81
2023/12/28 11:22:22;;;;;;;2.30;2.20;;;13.10;99.90;;;;;;5041389;28;20037;-84
2023/12/28 11:24:48;;;;;;;1.33;1.25;;;13.20;99.90;;;;;;5042072;28;20233;-77
2023/12/28 11:27:14;;;;;;;3.25;3.10;;;13.30;99.90;;;;;;5060578;28;20643;-78
2023/12/28 11:29:41;;;;;;;6.90;6.45;;;13.30;99.90;;;;;;5062639;28;20034;-79
2023/12/28 11:32:11;;;;;;;4.45;4.05;;;13.50;99.90;;;;;;5044159;28;20280;-90
2023/12/28 11:34:37;;;;;;;4.63;4.32;;;13.50;99.90;;;;;;5062718;28;20121;-88
2023/12/28 11:37:08;;;;;;;6.10;4.13;;;13.70;99.90;;;;;;5065155;28;20309;-93
2023/12/28 11:39:36;;;;;;;5.68;5.10;;;13.40;99.90;;;;;;5064100;28;20685;-92
2023/12/28 11:42:05;;;;;;;9.27;6.85;;;13.60;99.90;;;;;;5044764;28;20027;-92
2023/12/28 11:44:44;;;;;;;4.78;4.47;;;13.70;99.90;;;;;;5061114;28;20047;-79
2023/12/28 11:47:14;;;;;;;5.72;5.35;;;13.90;99.90;;;;;;5063285;28;20027;-78
2023/12/28 11:49:41;;;;;;;5.47;5.10;;;14.10;99.90;;;;;;5063161;28;20081;-89
2023/12/28 11:52:08;;;;;;;20.92;7.90;;;14.20;99.80;;;;;;5062531;28;20024;-75
2023/12/28 11:54:34;;;;;;;2.15;2.05;;;14.30;99.90;;;;;;5061188;28;20677;-80
2023/12/28 11:56:59;;;;;;;13.13;3.38;;;14.40;99.60;;;;;;5042818;28;20060;-76
2023/12/28 11:59:34;;;;;;;4.32;3.92;;;14.60;99.10;;;;;;5060643;28;20564;-88
2023/12/28 12:02:05;;;;;;;3.55;3.35;;;14.70;98.90;;;;;;5063940;28;20121;-83
2023/12/28 12:04:37;;;;;;;3.67;3.47;;;14.80;98.30;;;;;;5063364;28;20075;-89
2023/12/28 12:07:04;;;;;;;1.45;1.42;;;15.00;97.40;;;;;;5068225;28;20149;-88
2023/12/28 12:12:06;;;;;;;8.93;6.80;;;14.90;97.40;;;;;;5108702;23;20043;-76
2023/12/28 12:14:43;;;;;;;4.45;4.13;;;13.80;97.40;;;;;;5099466;28;20016;-76
2023/12/28 12:17:12;;;;;;;1.45;1.35;;;15.20;97.20;;;;;;5099481;28;20110;-83
2023/12/28 12:19:37;;;;;;;3.30;3.10;;;15.40;97.30;;;;;;5101512;28;20062;-80
2023/12/28 12:22:03;;;;;;;1.88;1.77;;;15.40;96.80;;;;;;5107849;28;20034;-75
2023/12/28 12:24:48;;;;;;;9.20;8.35;;;15.40;97.00;;;;;;5108453;28;20500;-94
2023/12/28 12:27:15;;;;;;;1.05;1.05;;;15.50;96.70;;;;;;5105637;28;20103;-86
2023/12/28 12:29:41;;;;;;;8.57;7.15;;;15.50;96.80;;;;;;5104919;28;20095;-81
2023/12/28 12:32:07;;;;;;;4.93;4.45;;;15.60;96.50;;;;;;5102620;27;20020;-84
2023/12/28 12:34:33;;;;;;;2.38;2.25;;;15.70;96.90;;;;;;5083741;28;20031;-85
2023/12/28 12:37:00;;;;;;;14.85;5.82;;;15.50;96.80;;;;;;5083831;28;20016;-81
2023/12/28 12:39:26;;;;;;;1.33;1.27;;;15.50;97.00;;;;;;5100724;28;20012;-75
2023/12/28 12:41:52;;;;;;;7.95;7.22;;;15.50;96.00;;;;;;5103655;28;20692;-86
2023/12/28 12:44:23;;;;;;;1.00;1.00;;;15.50;96.00;;;;;;5101138;28;20461;-82
2023/12/28 12:46:56;;;;;;;3.65;3.33;;;15.60;95.50;;;;;;5101790;28;20019;-93
2023/12/28 12:49:22;;;;;;;2.25;2.13;;;15.50;95.40;;;;;;5111523;27;20019;-77
2023/12/28 12:51:50;;;;;;;1.60;1.52;;;15.60;95.60;;;;;;5132361;27;20028;-83
2023/12/28 12:54:20;;;;;;;9.73;8.77;;;15.60;95.60;;;;;;5132932;27;20039;-82
2023/12/28 12:56:49;;;;;;;1.17;1.17;;;15.50;94.90;;;;;;5079119;27;20584;-76
2023/12/28 12:59:17;;;;;;;0.50;0.50;;;15.50;95.10;;;;;;5132146;27;20023;-82
2023/12/28 13:01:49;;;;;;;5.32;4.93;;;15.50;95.10;;;;;;5123821;27;20027;-79
2023/12/28 13:04:16;;;;;;;4.30;4.00;;;15.60;95.00;;;;;;5123910;27;20519;-80
2023/12/28 13:06:42;;;;;;;1.40;1.30;;;15.40;95.20;;;;;;5125951;27;20106;-80
2023/12/28 13:09:10;;;;;;;1.05;1.05;;;15.40;95.30;;;;;;5124011;27;20036;-78
2023/12/28 13:11:37;;;;;;;4.78;4.47;;;15.30;95.50;;;;;;5129280;27;20099;-76
2023/12/28 13:14:04;;;;;;;9.13;2.88;;;15.30;95.60;;;;;;5134928;27;20206;-81
2023/12/28 13:19:10;;;;;;;2.38;2.25;;;15.10;95.90;;;;;;5111660;22;20050;-88
2023/12/28 13:21:36;;;;;;;4.13;3.90;;;15.10;96.40;;;;;;5092909;28;20031;-78
2023/12/28 13:24:03;;;;;;;4.45;3.83;;;15.00;96.20;;;;;;5115380;28;20019;-79